sensor_id;sensor_type;location;lat;lon;timestamp;pressure;altitude;pressure_sealevel;temperature
53512;BMP280;39392;52.832;13.816;2023-02-01T00:01:18;100754.97;;;19.71
53512;BMP280;39392;52.832;13.816;2023-02-01T00:03:45;100751.59;;;19.69
53512;BMP280;39392;52.832;13.816;2023-02-01T00:06:11;100754.47;;;19.68
53512;BMP280;39392;52.832;13.816;2023-02-01T00:08:38;100755.31;;;19.68
53512;BMP280;39392;52.832;13.816;2023-02-01T00:11:05;100753.81;;;19.65
53512;BMP280;39392;52.832;13.816;2023-02-01T00:13:32;100745.84;;;19.64
53512;BMP280;39392;52.832;13.816;2023-02-01T00:16:03;100746.88;;;19.63
53512;BMP280;39392;52.832;13.816;2023-02-01T00:18:30;100740.59;;;19.62
53512;BMP280;39392;52.832;13.816;2023-02-01T00:20:56;100750.63;;;19.62
53512;BMP280;39392;52.832;13.816;2023-02-01T00:23:24;100744.47;;;19.60
53512;BMP280;39392;52.832;13.816;2023-02-01T00:25:50;100750.75;;;19.60
53512;BMP280;39392;52.832;13.816;2023-02-01T00:28:17;100749.25;;;19.58
53512;BMP280;39392;52.832;13.816;2023-02-01T00:30:43;100750.09;;;19.58
53512;BMP280;39392;52.832;13.816;2023-02-01T00:33:10;100743.81;;;19.58
53512;BMP280;39392;52.832;13.816;2023-02-01T00:35:36;100751.97;;;19.58
53512;BMP280;39392;52.832;13.816;2023-02-01T00:38:03;100742.97;;;19.57
53512;BMP280;39392;52.832;13.816;2023-02-01T00:40:29;100755.72;;;19.57
53512;BMP280;39392;52.832;13.816;2023-02-01T00:42:55;100750.28;;;19.57
53512;BMP280;39392;52.832;13.816;2023-02-01T00:45:24;100747.56;;;19.57
53512;BMP280;39392;52.832;13.816;2023-02-01T00:47:50;100751.97;;;19.58
53512;BMP280;39392;52.832;13.816;2023-02-01T00:50:16;100753.66;;;19.59
53512;BMP280;39392;52.832;13.816;2023-02-01T00:52:43;100744.66;;;19.58
53512;BMP280;39392;52.832;13.816;2023-02-01T00:55:09;100754.50;;;19.59
53512;BMP280;39392;52.832;13.816;2023-02-01T00:57:36;100742.78;;;19.59
53512;BMP280;39392;52.832;13.816;2023-02-01T01:00:02;100749.91;;;19.60
53512;BMP280;39392;52.832;13.816;2023-02-01T01:02:29;100734.63;;;19.59
53512;BMP280;39392;52.832;13.816;2023-02-01T01:04:56;100750.09;;;19.58
53512;BMP280;39392;52.832;13.816;2023-02-01T01:07:22;100743.81;;;19.58
53512;BMP280;39392;52.832;13.816;2023-02-01T01:09:48;100737.53;;;19.57
53512;BMP280;39392;52.832;13.816;2023-02-01T01:12:15;100736.69;;;19.57
53512;BMP280;39392;52.832;13.816;2023-02-01T01:14:41;100733.97;;;19.57
53512;BMP280;39392;52.832;13.816;2023-02-01T01:17:08;100734.97;;;19.56
53512;BMP280;39392;52.832;13.816;2023-02-01T01:19:34;100732.25;;;19.56
53512;BMP280;39392;52.832;13.816;2023-02-01T01:22:00;100748.75;;;19.54
53512;BMP280;39392;52.832;13.816;2023-02-01T01:24:27;100734.13;;;19.55
53512;BMP280;39392;52.832;13.816;2023-02-01T01:26:53;100734.97;;;19.56
53512;BMP280;39392;52.832;13.816;2023-02-01T01:29:20;100749.25;;;19.58
53512;BMP280;39392;52.832;13.816;2023-02-01T01:31:46;100734.81;;;19.57
53512;BMP280;39392;52.832;13.816;2023-02-01T01:34:13;100729.19;;;19.59
53512;BMP280;39392;52.832;13.816;2023-02-01T01:36:39;100724.59;;;19.59
53512;BMP280;39392;52.832;13.816;2023-02-01T01:39:06;100715.28;;;19.62
53512;BMP280;39392;52.832;13.816;2023-02-01T01:41:33;100725.97;;;19.63
53512;BMP280;39392;52.832;13.816;2023-02-01T01:44:01;100716.13;;;19.62
53512;BMP280;39392;52.832;13.816;2023-02-01T01:46:31;100716.97;;;19.63
53512;BMP280;39392;52.832;13.816;2023-02-01T01:49:09;100716.13;;;19.62
53512;BMP280;39392;52.832;13.816;2023-02-01T01:51:58;100713.19;;;19.64
53512;BMP280;39392;52.832;13.816;2023-02-01T01:54:24;100711.31;;;19.64
53512;BMP280;39392;52.832;13.816;2023-02-01T01:56:53;100715.94;;;19.64
53512;BMP280;39392;52.832;13.816;2023-02-01T01:59:21;100723.72;;;19.67
53512;BMP280;39392;52.832;13.816;2023-02-01T02:01:49;100733.56;;;19.68
53512;BMP280;39392;52.832;13.816;2023-02-01T02:04:15;100718.09;;;19.69
53512;BMP280;39392;52.832;13.816;2023-02-01T02:06:45;100710.63;;;19.71
53512;BMP280;39392;52.832;13.816;2023-02-01T02:09:14;100724.03;;;19.72
53512;BMP280;39392;52.832;13.816;2023-02-01T02:11:41;100720.31;;;19.73
53512;BMP280;39392;52.832;13.816;2023-02-01T02:14:08;100740.19;;;19.74
53512;BMP280;39392;52.832;13.816;2023-02-01T02:19:30;100728.47;;;19.73
53512;BMP280;39392;52.832;13.816;2023-02-01T02:22:15;100724.88;;;19.73
53512;BMP280;39392;52.832;13.816;2023-02-01T02:43:48;100689.91;;;19.70
53512;BMP280;39392;52.832;13.816;2023-02-01T02:46:42;100690.91;;;19.69
53512;BMP280;39392;52.832;13.816;2023-02-01T02:52:09;100691.09;;;19.67
53512;BMP280;39392;52.832;13.816;2023-02-01T02:54:57;100691.09;;;19.67
53512;BMP280;39392;52.832;13.816;2023-02-01T03:00:14;100704.69;;;19.67
53512;BMP280;39392;52.832;13.816;2023-02-01T03:03:01;100693.81;;;19.67
53512;BMP280;39392;52.832;13.816;2023-02-01T03:05:47;100688.38;;;19.67
53512;BMP280;39392;52.832;13.816;2023-02-01T03:08:23;100682.09;;;19.67
53512;BMP280;39392;52.832;13.816;2023-02-01T03:13:19;100682.94;;;19.67
53512;BMP280;39392;52.832;13.816;2023-02-01T03:18:17;100676.47;;;19.68
53512;BMP280;39392;52.832;13.816;2023-02-01T03:20:46;100658.28;;;19.69
53512;BMP280;39392;52.832;13.816;2023-02-01T03:23:15;100671.03;;;19.68
53512;BMP280;39392;52.832;13.816;2023-02-01T03:25:44;100656.59;;;19.68
53512;BMP280;39392;52.832;13.816;2023-02-01T03:28:13;100657.63;;;19.67
53512;BMP280;39392;52.832;13.816;2023-02-01T03:30:42;100655.94;;;19.65
53512;BMP280;39392;52.832;13.816;2023-02-01T03:33:10;100664.09;;;19.65
53512;BMP280;39392;52.832;13.816;2023-02-01T03:38:27;100651.34;;;19.66
53512;BMP280;39392;52.832;13.816;2023-02-01T03:41:18;100639.63;;;19.65
53512;BMP280;39392;52.832;13.816;2023-02-01T03:46:15;100625.00;;;19.67
53512;BMP280;39392;52.832;13.816;2023-02-01T03:48:44;100623.97;;;19.68
53512;BMP280;39392;52.832;13.816;2023-02-01T03:51:10;100620.41;;;19.67
53512;BMP280;39392;52.832;13.816;2023-02-01T03:53:38;100625.84;;;19.67
53512;BMP280;39392;52.832;13.816;2023-02-01T03:56:06;100623.97;;;19.68
53512;BMP280;39392;52.832;13.816;2023-02-01T03:58:32;100613.09;;;19.68
53512;BMP280;39392;52.832;13.816;2023-02-01T04:00:59;100626.69;;;19.68
53512;BMP280;39392;52.832;13.816;2023-02-01T04:03:26;100617.50;;;19.69
53512;BMP280;39392;52.832;13.816;2023-02-01T04:05:53;100615.66;;;19.69
53512;BMP280;39392;52.832;13.816;2023-02-01T04:08:20;100611.06;;;19.70
53512;BMP280;39392;52.832;13.816;2023-02-01T04:10:47;100602.91;;;19.70
53512;BMP280;39392;52.832;13.816;2023-02-01T04:13:13;100611.88;;;19.70
53512;BMP280;39392;52.832;13.816;2023-02-01T04:15:40;100611.06;;;19.70
53512;BMP280;39392;52.832;13.816;2023-02-01T04:18:06;100608.34;;;19.70
53512;BMP280;39392;52.832;13.816;2023-02-01T04:20:33;100611.06;;;19.70
53512;BMP280;39392;52.832;13.816;2023-02-01T04:22:59;100613.94;;;19.68
53512;BMP280;39392;52.832;13.816;2023-02-01T04:25:28;100612.06;;;19.69
53512;BMP280;39392;52.832;13.816;2023-02-01T04:27:55;100617.69;;;19.67
53512;BMP280;39392;52.832;13.816;2023-02-01T04:30:21;100618.53;;;19.68
53512;BMP280;39392;52.832;13.816;2023-02-01T04:32:50;100603.25;;;19.67
53512;BMP280;39392;52.832;13.816;2023-02-01T04:35:16;100613.94;;;19.68
53512;BMP280;39392;52.832;13.816;2023-02-01T04:37:44;100619.38;;;19.68
53512;BMP280;39392;52.832;13.816;2023-02-01T04:40:10;100625.66;;;19.69
53512;BMP280;39392;52.832;13.816;2023-02-01T04:42:37;100620.22;;;19.69
53512;BMP280;39392;52.832;13.816;2023-02-01T04:45:04;100599.34;;;19.69
53512;BMP280;39392;52.832;13.816;2023-02-01T04:47:30;100605.78;;;19.68
53512;BMP280;39392;52.832;13.816;2023-02-01T04:49:57;100609.53;;;19.67
53512;BMP280;39392;52.832;13.816;2023-02-01T04:52:23;100605.97;;;19.67
53512;BMP280;39392;52.832;13.816;2023-02-01T04:54:49;100600.34;;;19.68
53512;BMP280;39392;52.832;13.816;2023-02-01T04:57:16;100597.63;;;19.68
53512;BMP280;39392;52.832;13.816;2023-02-01T04:59:42;100625.66;;;19.69
53512;BMP280;39392;52.832;13.816;2023-02-01T05:02:09;100603.91;;;19.69
53512;BMP280;39392;52.832;13.816;2023-02-01T05:04:35;100601.00;;;19.70
53512;BMP280;39392;52.832;13.816;2023-02-01T05:07:02;100597.63;;;19.68
53512;BMP280;39392;52.832;13.816;2023-02-01T05:09:28;100594.06;;;19.68
53512;BMP280;39392;52.832;13.816;2023-02-01T05:11:55;100588.63;;;19.68
53512;BMP280;39392;52.832;13.816;2023-02-01T05:14:40;100597.63;;;19.68
53512;BMP280;39392;52.832;13.816;2023-02-01T05:17:06;100595.09;;;19.67
53512;BMP280;39392;52.832;13.816;2023-02-01T05:19:32;100587.78;;;19.67
53512;BMP280;39392;52.832;13.816;2023-02-01T05:21:59;100594.06;;;19.68
53512;BMP280;39392;52.832;13.816;2023-02-01T05:24:25;100590.50;;;19.67
53512;BMP280;39392;52.832;13.816;2023-02-01T05:26:53;100587.78;;;19.67
53512;BMP280;39392;52.832;13.816;2023-02-01T05:29:19;100586.09;;;19.66
53512;BMP280;39392;52.832;13.816;2023-02-01T05:31:46;100587.78;;;19.67
53512;BMP280;39392;52.832;13.816;2023-02-01T05:34:13;100575.88;;;19.68
53512;BMP280;39392;52.832;13.816;2023-02-01T05:36:40;100585.06;;;19.67
53512;BMP280;39392;52.832;13.816;2023-02-01T05:39:07;100584.03;;;19.68
53512;BMP280;39392;52.832;13.816;2023-02-01T05:41:33;100577.75;;;19.68
53512;BMP280;39392;52.832;13.816;2023-02-01T05:44:00;100586.75;;;19.68
53512;BMP280;39392;52.832;13.816;2023-02-01T05:46:26;100583.84;;;19.70
53512;BMP280;39392;52.832;13.816;2023-02-01T05:48:53;100582.16;;;19.69
53512;BMP280;39392;52.832;13.816;2023-02-01T05:51:19;100575.88;;;19.68
53512;BMP280;39392;52.832;13.816;2023-02-01T05:53:46;100578.59;;;19.68
53512;BMP280;39392;52.832;13.816;2023-02-01T05:56:12;100585.91;;;19.68
53512;BMP280;39392;52.832;13.816;2023-02-01T05:58:38;100583.84;;;19.70
53512;BMP280;39392;52.832;13.816;2023-02-01T06:01:05;100576.72;;;19.69
53512;BMP280;39392;52.832;13.816;2023-02-01T06:03:31;100578.41;;;19.70
53512;BMP280;39392;52.832;13.816;2023-02-01T06:05:58;100571.09;;;19.70
53512;BMP280;39392;52.832;13.816;2023-02-01T06:08:27;100571.94;;;19.71
53512;BMP280;39392;52.832;13.816;2023-02-01T06:10:57;100555.63;;;19.71
53512;BMP280;39392;52.832;13.816;2023-02-01T06:13:24;100552.91;;;19.71
53512;BMP280;39392;52.832;13.816;2023-02-01T06:15:50;100560.22;;;19.70
53512;BMP280;39392;52.832;13.816;2023-02-01T06:18:17;100562.09;;;19.70
53512;BMP280;39392;52.832;13.816;2023-02-01T06:20:44;100555.84;;;19.69
53512;BMP280;39392;52.832;13.816;2023-02-01T06:23:10;100568.19;;;19.72
53512;BMP280;39392;52.832;13.816;2023-02-01T06:25:37;100555.44;;;19.72
53512;BMP280;39392;52.832;13.816;2023-02-01T06:28:03;100564.28;;;19.74
53512;BMP280;39392;52.832;13.816;2023-02-01T06:30:31;100557.78;;;19.75
53512;BMP280;39392;52.832;13.816;2023-02-01T06:32:58;100558.84;;;19.74
53512;BMP280;39392;52.832;13.816;2023-02-01T06:35:24;100563.22;;;19.75
53512;BMP280;39392;52.832;13.816;2023-02-01T06:37:52;100554.88;;;19.77
53512;BMP280;39392;52.832;13.816;2023-02-01T06:40:19;100558.47;;;19.77
53512;BMP280;39392;52.832;13.816;2023-02-01T06:42:47;100570.19;;;19.78
53512;BMP280;39392;52.832;13.816;2023-02-01T06:45:14;100559.31;;;19.78
53512;BMP280;39392;52.832;13.816;2023-02-01T06:47:40;100550.31;;;19.77
53512;BMP280;39392;52.832;13.816;2023-02-01T06:50:08;100560.16;;;19.78
53512;BMP280;39392;52.832;13.816;2023-02-01T06:52:35;100562.03;;;19.78
53512;BMP280;39392;52.832;13.816;2023-02-01T06:55:01;100559.31;;;19.78
53512;BMP280;39392;52.832;13.816;2023-02-01T06:57:28;100548.59;;;19.76
53512;BMP280;39392;52.832;13.816;2023-02-01T06:59:56;100556.75;;;19.76
53512;BMP280;39392;52.832;13.816;2023-02-01T07:02:23;100558.63;;;19.76
53512;BMP280;39392;52.832;13.816;2023-02-01T07:04:49;100553.41;;;19.74
53512;BMP280;39392;52.832;13.816;2023-02-01T07:07:16;100553.41;;;19.74
53512;BMP280;39392;52.832;13.816;2023-02-01T07:09:43;100551.72;;;19.73
53512;BMP280;39392;52.832;13.816;2023-02-01T07:12:09;100556.28;;;19.73
53512;BMP280;39392;52.832;13.816;2023-02-01T07:14:36;100553.56;;;19.73
53512;BMP280;39392;52.832;13.816;2023-02-01T07:17:02;100556.28;;;19.73
53512;BMP280;39392;52.832;13.816;2023-02-01T07:19:28;100550.84;;;19.73
53512;BMP280;39392;52.832;13.816;2023-02-01T07:21:55;100556.28;;;19.73
53512;BMP280;39392;52.832;13.816;2023-02-01T07:24:21;100557.31;;;19.72
53512;BMP280;39392;52.832;13.816;2023-02-01T07:26:48;100553.09;;;19.69
53512;BMP280;39392;52.832;13.816;2023-02-01T07:29:17;100553.28;;;19.68
53512;BMP280;39392;52.832;13.816;2023-02-01T07:31:44;100549.53;;;19.69
53512;BMP280;39392;52.832;13.816;2023-02-01T07:34:11;100544.97;;;19.69
53512;BMP280;39392;52.832;13.816;2023-02-01T07:36:37;100542.22;;;19.69
53512;BMP280;39392;52.832;13.816;2023-02-01T07:39:04;100544.97;;;19.69
53512;BMP280;39392;52.832;13.816;2023-02-01T07:41:31;100547.66;;;19.69
53512;BMP280;39392;52.832;13.816;2023-02-01T07:43:57;100547.47;;;19.71
53512;BMP280;39392;52.832;13.816;2023-02-01T07:46:24;100542.88;;;19.71
53512;BMP280;39392;52.832;13.816;2023-02-01T07:48:52;100541.84;;;19.72
53512;BMP280;39392;52.832;13.816;2023-02-01T07:51:18;100537.25;;;19.73
53512;BMP280;39392;52.832;13.816;2023-02-01T07:53:45;100541.84;;;19.72
53512;BMP280;39392;52.832;13.816;2023-02-01T07:56:12;100535.56;;;19.72
53512;BMP280;39392;52.832;13.816;2023-02-01T07:58:39;100526.56;;;19.71
53512;BMP280;39392;52.832;13.816;2023-02-01T08:01:11;100533.88;;;19.71
53512;BMP280;39392;52.832;13.816;2023-02-01T08:03:54;100529.47;;;19.70
53512;BMP280;39392;52.832;13.816;2023-02-01T08:06:21;100513.34;;;19.68
53512;BMP280;39392;52.832;13.816;2023-02-01T08:08:49;100517.94;;;19.68
53512;BMP280;39392;52.832;13.816;2023-02-01T08:11:15;100513.34;;;19.68
53512;BMP280;39392;52.832;13.816;2023-02-01T08:13:42;100509.97;;;19.66
53512;BMP280;39392;52.832;13.816;2023-02-01T08:16:09;100500.97;;;19.65
53512;BMP280;39392;52.832;13.816;2023-02-01T08:18:36;100500.13;;;19.65
53512;BMP280;39392;52.832;13.816;2023-02-01T08:21:04;100499.25;;;19.64
53512;BMP280;39392;52.832;13.816;2023-02-01T08:23:32;100508.47;;;19.63
53512;BMP280;39392;52.832;13.816;2023-02-01T08:26:05;100519.16;;;19.65
53512;BMP280;39392;52.832;13.816;2023-02-01T08:28:32;100515.22;;;19.68
53512;BMP280;39392;52.832;13.816;2023-02-01T08:30:59;100522.53;;;19.67
53512;BMP280;39392;52.832;13.816;2023-02-01T08:33:25;100517.56;;;19.71
53512;BMP280;39392;52.832;13.816;2023-02-01T08:35:52;100531.16;;;19.71
53512;BMP280;39392;52.832;13.816;2023-02-01T08:38:18;100531.16;;;19.71
53512;BMP280;39392;52.832;13.816;2023-02-01T08:40:45;100527.41;;;19.72
53512;BMP280;39392;52.832;13.816;2023-02-01T08:43:12;100523.00;;;19.71
53512;BMP280;39392;52.832;13.816;2023-02-01T08:45:39;100515.69;;;19.71
53512;BMP280;39392;52.832;13.816;2023-02-01T08:48:05;100517.56;;;19.71
53512;BMP280;39392;52.832;13.816;2023-02-01T08:50:32;100520.28;;;19.71
53512;BMP280;39392;52.832;13.816;2023-02-01T08:52:58;100520.47;;;19.69
53512;BMP280;39392;52.832;13.816;2023-02-01T08:55:25;100524.88;;;19.70
53512;BMP280;39392;52.832;13.816;2023-02-01T08:57:53;100516.88;;;19.69
53512;BMP280;39392;52.832;13.816;2023-02-01T09:00:19;100523.19;;;19.69
53512;BMP280;39392;52.832;13.816;2023-02-01T09:02:46;100531.34;;;19.69
53512;BMP280;39392;52.832;13.816;2023-02-01T09:05:13;100525.91;;;19.69
53512;BMP280;39392;52.832;13.816;2023-02-01T09:07:42;100533.03;;;19.70
53512;BMP280;39392;52.832;13.816;2023-02-01T09:10:09;100535.75;;;19.70
53512;BMP280;39392;52.832;13.816;2023-02-01T09:12:35;100541.19;;;19.70
53512;BMP280;39392;52.832;13.816;2023-02-01T09:15:02;100538.47;;;19.70
53512;BMP280;39392;52.832;13.816;2023-02-01T09:17:29;100549.34;;;19.70
53512;BMP280;39392;52.832;13.816;2023-02-01T09:19:56;100559.19;;;19.71
53512;BMP280;39392;52.832;13.816;2023-02-01T09:22:22;100538.47;;;19.70
53512;BMP280;39392;52.832;13.816;2023-02-01T09:24:49;100560.03;;;19.72
53512;BMP280;39392;52.832;13.816;2023-02-01T09:27:16;100554.78;;;19.70
53512;BMP280;39392;52.832;13.816;2023-02-01T09:29:42;100558.34;;;19.71
53512;BMP280;39392;52.832;13.816;2023-02-01T09:32:09;100560.88;;;19.72
53512;BMP280;39392;52.832;13.816;2023-02-01T09:34:35;100575.50;;;19.71
53512;BMP280;39392;52.832;13.816;2023-02-01T09:37:02;100569.22;;;19.71
53512;BMP280;39392;52.832;13.816;2023-02-01T09:39:29;100590.13;;;19.70
53512;BMP280;39392;52.832;13.816;2023-02-01T09:42:12;100589.28;;;19.70
53512;BMP280;39392;52.832;13.816;2023-02-01T09:47:18;100579.44;;;19.69
53512;BMP280;39392;52.832;13.816;2023-02-01T09:49:51;100588.47;;;19.69
53512;BMP280;39392;52.832;13.816;2023-02-01T09:52:35;100589.09;;;19.71
53512;BMP280;39392;52.832;13.816;2023-02-01T09:55:07;100586.59;;;19.70
53512;BMP280;39392;52.832;13.816;2023-02-01T10:00:06;100587.41;;;19.70
53512;BMP280;39392;52.832;13.816;2023-02-01T10:02:36;100588.47;;;19.69
53512;BMP280;39392;52.832;13.816;2023-02-01T10:05:05;100579.44;;;19.69
53512;BMP280;39392;52.832;13.816;2023-02-01T10:10:53;100593.91;;;19.69
53512;BMP280;39392;52.832;13.816;2023-02-01T10:26:21;100590.03;;;19.63
53512;BMP280;39392;52.832;13.816;2023-02-01T10:28:56;100598.19;;;19.63
53512;BMP280;39392;52.832;13.816;2023-02-01T10:31:25;100591.06;;;19.62
53512;BMP280;39392;52.832;13.816;2023-02-01T10:33:56;100582.19;;;19.60
53512;BMP280;39392;52.832;13.816;2023-02-01T10:36:25;100581.22;;;19.61
53512;BMP280;39392;52.832;13.816;2023-02-01T10:38:59;100584.78;;;19.62
53512;BMP280;39392;52.832;13.816;2023-02-01T10:41:30;100580.38;;;19.61
53512;BMP280;39392;52.832;13.816;2023-02-01T10:43:59;100568.59;;;19.60
53512;BMP280;39392;52.832;13.816;2023-02-01T10:46:26;100575.78;;;19.61
53512;BMP280;39392;52.832;13.816;2023-02-01T10:48:54;100575.78;;;19.61
53512;BMP280;39392;52.832;13.816;2023-02-01T10:51:42;100586.66;;;19.61
53512;BMP280;39392;52.832;13.816;2023-02-01T10:54:14;100580.38;;;19.61
53512;BMP280;39392;52.832;13.816;2023-02-01T10:56:43;100573.06;;;19.61
53512;BMP280;39392;52.832;13.816;2023-02-01T10:59:18;100567.75;;;19.60
53512;BMP280;39392;52.832;13.816;2023-02-01T11:01:45;100572.34;;;19.59
53512;BMP280;39392;52.832;13.816;2023-02-01T11:04:14;100564.06;;;19.61
53512;BMP280;39392;52.832;13.816;2023-02-01T11:06:45;100558.75;;;19.59
53512;BMP280;39392;52.832;13.816;2023-02-01T11:09:22;100562.31;;;19.60
53512;BMP280;39392;52.832;13.816;2023-02-01T11:16:43;100552.47;;;19.59
53512;BMP280;39392;52.832;13.816;2023-02-01T11:19:13;100554.16;;;19.60
53512;BMP280;39392;52.832;13.816;2023-02-01T11:21:41;100549.75;;;19.59
53512;BMP280;39392;52.832;13.816;2023-02-01T11:24:11;100547.88;;;19.59
53512;BMP280;39392;52.832;13.816;2023-02-01T11:26:41;100551.31;;;19.61
53512;BMP280;39392;52.832;13.816;2023-02-01T11:29:11;100558.63;;;19.61
53512;BMP280;39392;52.832;13.816;2023-02-01T11:31:39;100546.00;;;19.60
53512;BMP280;39392;52.832;13.816;2023-02-01T11:34:12;100554.03;;;19.61
53512;BMP280;39392;52.832;13.816;2023-02-01T11:36:39;100545.03;;;19.61
53512;BMP280;39392;52.832;13.816;2023-02-01T11:41:43;100534.28;;;19.59
53512;BMP280;39392;52.832;13.816;2023-02-01T11:44:22;100524.47;;;19.58
53512;BMP280;39392;52.832;13.816;2023-02-01T11:46:49;100524.47;;;19.58
53512;BMP280;39392;52.832;13.816;2023-02-01T11:57:18;100526.69;;;19.55
53512;BMP280;39392;52.832;13.816;2023-02-01T12:05:25;100518.53;;;19.55
53512;BMP280;39392;52.832;13.816;2023-02-01T12:26:26;100530.66;;;19.52
53512;BMP280;39392;52.832;13.816;2023-02-01T12:31:51;100529.41;;;19.55
53512;BMP280;39392;52.832;13.816;2023-02-01T12:36:58;100534.50;;;19.58
53512;BMP280;39392;52.832;13.816;2023-02-01T12:46:54;100520.38;;;19.62
53512;BMP280;39392;52.832;13.816;2023-02-01T12:51:52;100502.38;;;19.61
53512;BMP280;39392;52.832;13.816;2023-02-01T12:57:26;100490.66;;;19.61
53512;BMP280;39392;52.832;13.816;2023-02-01T13:00:18;100494.22;;;19.61
53512;BMP280;39392;52.832;13.816;2023-02-01T13:10:45;100481.81;;;19.59
53512;BMP280;39392;52.832;13.816;2023-02-01T13:18:16;100492.88;;;19.57
53512;BMP280;39392;52.832;13.816;2023-02-01T13:20:49;100502.06;;;19.56
53512;BMP280;39392;52.832;13.816;2023-02-01T13:23:28;100491.19;;;19.56
53512;BMP280;39392;52.832;13.816;2023-02-01T13:25:55;100493.03;;;19.56
53512;BMP280;39392;52.832;13.816;2023-02-01T13:28:37;100495.59;;;19.57
53512;BMP280;39392;52.832;13.816;2023-02-01T13:41:32;100455.19;;;19.54
53512;BMP280;39392;52.832;13.816;2023-02-01T13:44:03;100445.34;;;19.53
53512;BMP280;39392;52.832;13.816;2023-02-01T13:46:41;100446.38;;;19.52
53512;BMP280;39392;52.832;13.816;2023-02-01T13:49:16;100448.06;;;19.53
53512;BMP280;39392;52.832;13.816;2023-02-01T13:51:45;100447.22;;;19.53
53512;BMP280;39392;52.832;13.816;2023-02-01T13:54:37;100449.09;;;19.52
53512;BMP280;39392;52.832;13.816;2023-02-01T13:57:01;100431.91;;;19.52
53512;BMP280;39392;52.832;13.816;2023-02-01T14:04:52;100424.81;;;19.51
53512;BMP280;39392;52.832;13.816;2023-02-01T14:07:20;100427.53;;;19.51
53512;BMP280;39392;52.832;13.816;2023-02-01T14:09:47;100420.41;;;19.50
53512;BMP280;39392;52.832;13.816;2023-02-01T14:15:19;100428.38;;;19.51
53512;BMP280;39392;52.832;13.816;2023-02-01T14:17:48;100417.69;;;19.50
53512;BMP280;39392;52.832;13.816;2023-02-01T14:23:01;100403.44;;;19.48
53512;BMP280;39392;52.832;13.816;2023-02-01T14:25:32;100398.00;;;19.48
53512;BMP280;39392;52.832;13.816;2023-02-01T14:27:59;100392.56;;;19.48
53512;BMP280;39392;52.832;13.816;2023-02-01T14:30:27;100391.72;;;19.47
53512;BMP280;39392;52.832;13.816;2023-02-01T14:32:53;100377.50;;;19.45
53512;BMP280;39392;52.832;13.816;2023-02-01T14:35:21;100386.47;;;19.46
53512;BMP280;39392;52.832;13.816;2023-02-01T14:37:51;100381.03;;;19.46
53512;BMP280;39392;52.832;13.816;2023-02-01T14:40:20;100374.78;;;19.45
53512;BMP280;39392;52.832;13.816;2023-02-01T14:42:50;100365.78;;;19.45
53512;BMP280;39392;52.832;13.816;2023-02-01T14:47:54;100373.25;;;19.42
53512;BMP280;39392;52.832;13.816;2023-02-01T14:50:23;100396.03;;;19.41
53512;BMP280;39392;52.832;13.816;2023-02-01T14:55:40;100395.19;;;19.41
53512;BMP280;39392;52.832;13.816;2023-02-01T15:00:50;100378.06;;;19.40
53512;BMP280;39392;52.832;13.816;2023-02-01T15:03:22;100372.63;;;19.40
53512;BMP280;39392;52.832;13.816;2023-02-01T15:05:57;100379.94;;;19.40
53512;BMP280;39392;52.832;13.816;2023-02-01T15:08:28;100396.25;;;19.40
53512;BMP280;39392;52.832;13.816;2023-02-01T15:10:56;100398.97;;;19.40
53512;BMP280;39392;52.832;13.816;2023-02-01T15:13:26;100383.28;;;19.42
53512;BMP280;39392;52.832;13.816;2023-02-01T15:16:00;100395.00;;;19.42
53512;BMP280;39392;52.832;13.816;2023-02-01T15:18:27;100380.38;;;19.44
53512;BMP280;39392;52.832;13.816;2023-02-01T15:21:01;100376.81;;;19.43
53512;BMP280;39392;52.832;13.816;2023-02-01T15:23:48;100374.28;;;19.41
53512;BMP280;39392;52.832;13.816;2023-02-01T15:26:24;100369.91;;;19.40
53512;BMP280;39392;52.832;13.816;2023-02-01T15:28:51;100357.31;;;19.39
53512;BMP280;39392;52.832;13.816;2023-02-01T15:31:30;100361.06;;;19.38
53512;BMP280;39392;52.832;13.816;2023-02-01T15:33:57;100355.84;;;19.37
53512;BMP280;39392;52.832;13.816;2023-02-01T15:36:24;100348.53;;;19.37
53512;BMP280;39392;52.832;13.816;2023-02-01T15:41:39;100354.16;;;19.36
53512;BMP280;39392;52.832;13.816;2023-02-01T15:46:45;100364.38;;;19.34
53512;BMP280;39392;52.832;13.816;2023-02-01T15:49:22;100368.94;;;19.33
53512;BMP280;39392;52.832;13.816;2023-02-01T15:51:50;100355.38;;;19.33
53512;BMP280;39392;52.832;13.816;2023-02-01T15:54:22;100354.34;;;19.34
53512;BMP280;39392;52.832;13.816;2023-02-01T15:56:51;100342.63;;;19.34
53512;BMP280;39392;52.832;13.816;2023-02-01T15:59:19;100338.03;;;19.34
53512;BMP280;39392;52.832;13.816;2023-02-01T16:01:47;100344.31;;;19.35
53512;BMP280;39392;52.832;13.816;2023-02-01T16:06:51;100342.63;;;19.34
53512;BMP280;39392;52.832;13.816;2023-02-01T16:09:19;100341.59;;;19.35
53512;BMP280;39392;52.832;13.816;2023-02-01T16:11:52;100346.19;;;19.34
53512;BMP280;39392;52.832;13.816;2023-02-01T16:14:20;100338.88;;;19.35
53512;BMP280;39392;52.832;13.816;2023-02-01T16:16:46;100339.91;;;19.34
53512;BMP280;39392;52.832;13.816;2023-02-01T16:19:13;100349.94;;;19.33
53512;BMP280;39392;52.832;13.816;2023-02-01T16:21:39;100339.06;;;19.33
53512;BMP280;39392;52.832;13.816;2023-02-01T16:24:06;100344.50;;;19.33
53512;BMP280;39392;52.832;13.816;2023-02-01T16:26:33;100348.25;;;19.32
53512;BMP280;39392;52.832;13.816;2023-02-01T16:29:00;100350.13;;;19.32
53512;BMP280;39392;52.832;13.816;2023-02-01T16:31:29;100353.84;;;19.31
53512;BMP280;39392;52.832;13.816;2023-02-01T16:33:57;100357.63;;;19.30
53512;BMP280;39392;52.832;13.816;2023-02-01T16:36:24;100359.50;;;19.29
53512;BMP280;39392;52.832;13.816;2023-02-01T16:38:51;100357.13;;;19.26
53512;BMP280;39392;52.832;13.816;2023-02-01T16:41:20;100360.69;;;19.27